createdAt,value
2019-04-20T00:00:35.896Z,14.00
2019-04-20T00:03:00.986Z,14.01
2019-04-20T00:05:28.886Z,14.02
2019-04-20T00:08:00.629Z,13.99
2019-04-20T00:10:30.101Z,13.95
2019-04-20T00:13:10.554Z,13.94
2019-04-20T00:15:28.224Z,13.95
2019-04-20T00:18:01.236Z,13.94
2019-04-20T00:20:30.958Z,13.90
2019-04-20T00:22:59.687Z,13.82
2019-04-20T00:25:54.585Z,13.78
2019-04-20T00:28:31.622Z,13.71
2019-04-20T00:30:58.722Z,13.68
2019-04-20T00:33:34.952Z,13.69
2019-04-20T00:35:46.324Z,13.68
2019-04-20T00:38:15.989Z,13.63
2019-04-20T00:40:45.475Z,13.55
2019-04-20T00:43:21.222Z,13.51
2019-04-20T00:45:57.361Z,13.46
2019-04-20T00:48:22.700Z,13.39
2019-04-20T00:50:59.401Z,13.33
2019-04-20T00:53:23.874Z,13.32
2019-04-20T00:55:44.417Z,13.31
2019-04-20T00:58:20.202Z,13.26
2019-04-20T01:01:07.330Z,13.25
2019-04-20T01:03:27.662Z,13.18
2019-04-20T01:06:09.752Z,13.11
2019-04-20T01:08:17.120Z,13.06
2019-04-20T01:10:51.498Z,13.01
2019-04-20T01:13:20.357Z,13.02
2019-04-20T01:15:55.421Z,12.99
2019-04-20T01:18:17.097Z,12.94
2019-04-20T01:20:45.406Z,12.90
2019-04-20T01:23:19.000Z,12.86
2019-04-20T01:25:45.858Z,12.86
2019-04-20T01:28:31.023Z,12.85
2019-04-20T01:30:58.209Z,12.84
2019-04-20T01:33:27.900Z,12.82
2019-04-20T01:35:57.127Z,12.79
2019-04-20T01:38:32.928Z,12.74
2019-04-20T01:40:44.402Z,12.69
2019-04-20T01:43:12.699Z,12.62
2019-04-20T01:45:43.937Z,12.57
2019-04-20T01:48:15.112Z,12.54
2019-04-20T01:50:49.876Z,12.49
2019-04-20T01:53:23.749Z,12.42
2019-04-20T01:55:55.767Z,12.35
2019-04-20T01:58:50.574Z,12.32
2019-04-20T02:01:21.073Z,12.28
2019-04-20T02:03:55.085Z,12.27
2019-04-20T02:06:41.874Z,12.22
2019-04-20T02:09:14.547Z,12.20
2019-04-20T02:11:42.587Z,12.16
2019-04-20T02:14:10.250Z,12.16
2019-04-20T02:16:42.726Z,12.11
2019-04-20T02:19:22.934Z,12.06
2019-04-20T02:21:52.046Z,12.01
2019-04-20T02:24:10.518Z,11.97
2019-04-20T02:26:36.923Z,11.91
2019-04-20T02:29:32.451Z,11.84
2019-04-20T02:34:49.622Z,11.76
2019-04-20T02:42:24.244Z,11.63
2019-04-20T02:45:00.752Z,11.61
2019-04-20T02:47:25.392Z,11.59
2019-04-20T02:49:52.473Z,11.55
2019-04-20T02:52:21.057Z,11.53
2019-04-20T02:54:53.535Z,11.50
2019-04-20T02:57:17.939Z,11.44
2019-04-20T02:59:59.512Z,11.40
2019-04-20T03:02:06.480Z,11.38
2019-04-20T03:04:29.498Z,11.35
2019-04-20T03:07:05.221Z,11.31
2019-04-20T03:09:40.416Z,11.26
2019-04-20T03:12:09.195Z,11.21
2019-04-20T03:14:36.214Z,11.16
2019-04-20T03:17:12.851Z,11.15
2019-04-20T03:19:31.358Z,11.12
2019-04-20T03:22:23.559Z,11.09
2019-04-20T03:24:46.872Z,11.05
2019-04-20T03:27:08.261Z,11.01
2019-04-20T03:30:07.794Z,11.00
2019-04-20T03:32:53.873Z,10.98
2019-04-20T03:39:48.870Z,10.86
2019-04-20T03:42:06.998Z,10.84
2019-04-20T03:44:35.984Z,10.82
2019-04-20T03:47:08.837Z,10.77
2019-04-20T03:50:13.243Z,10.75
2019-04-20T03:52:28.848Z,10.75
2019-04-20T03:55:09.592Z,10.73
2019-04-20T03:57:40.980Z,10.68
2019-04-20T04:00:26.715Z,10.60
2019-04-20T04:03:08.449Z,10.57
2019-04-20T04:05:32.499Z,10.56
2019-04-20T04:07:55.961Z,10.54
2019-04-20T04:10:29.303Z,10.51
2019-04-20T04:13:09.359Z,10.50
2019-04-20T04:15:47.924Z,10.49
2019-04-20T04:18:17.165Z,10.50
2019-04-20T04:20:46.727Z,10.49
2019-04-20T04:23:32.574Z,10.50
2019-04-20T04:26:00.885Z,10.49
2019-04-20T04:28:27.043Z,10.48
2019-04-20T04:31:05.185Z,10.45
2019-04-20T04:35:56.847Z,10.41
2019-04-20T04:38:32.706Z,10.40
2019-04-20T04:41:08.512Z,10.38
2019-04-20T04:43:32.614Z,10.37
2019-04-20T04:45:40.640Z,10.38
2019-04-20T04:48:14.731Z,10.39
2019-04-20T04:50:49.578Z,10.40
2019-04-20T04:53:20.589Z,10.40
2019-04-20T04:55:47.718Z,10.39
2019-04-20T04:58:10.599Z,10.37
2019-04-20T05:00:40.727Z,10.37
2019-04-20T05:03:26.707Z,10.39
2019-04-20T05:06:06.490Z,10.39
2019-04-20T05:08:27.387Z,10.41
2019-04-20T05:10:50.410Z,10.44
2019-04-20T05:13:19.902Z,10.48
2019-04-20T05:16:00.425Z,10.51
2019-04-20T05:18:41.556Z,10.53
2019-04-20T05:21:10.993Z,10.54
2019-04-20T05:23:39.991Z,10.58
2019-04-20T05:26:20.046Z,10.64
2019-04-20T05:28:40.755Z,10.73
2019-04-20T05:31:04.506Z,10.81
2019-04-20T05:33:49.743Z,10.89
2019-04-20T05:36:19.173Z,10.98
2019-04-20T05:38:54.354Z,11.10
2019-04-20T05:41:18.809Z,11.23
2019-04-20T05:43:52.051Z,11.37
2019-04-20T05:46:29.157Z,11.52
2019-04-20T05:49:00.303Z,11.64
2019-04-20T05:51:29.779Z,11.75
2019-04-20T05:53:59.213Z,11.85
2019-04-20T05:56:30.710Z,11.94
2019-04-20T05:58:57.973Z,12.06
2019-04-20T06:01:36.378Z,12.21
2019-04-20T06:03:53.888Z,12.40
2019-04-20T06:06:30.606Z,12.57
2019-04-20T06:08:59.215Z,12.72
2019-04-20T06:11:26.727Z,12.91
2019-04-20T06:13:51.492Z,13.09
2019-04-20T06:16:41.011Z,13.29
2019-04-20T06:19:18.289Z,13.47
2019-04-20T06:21:43.960Z,13.64
2019-04-20T06:24:10.634Z,13.82
2019-04-20T06:26:53.636Z,13.97
2019-04-20T06:29:13.680Z,14.14
2019-04-20T06:31:45.941Z,14.25
2019-04-20T06:37:09.861Z,14.52
2019-04-20T06:39:30.992Z,14.71
2019-04-20T06:47:02.865Z,15.16
2019-04-20T06:51:59.340Z,15.44
2019-04-20T06:54:39.472Z,15.60
2019-04-20T06:57:13.004Z,15.79
2019-04-20T07:02:18.697Z,16.02
2019-04-20T07:07:09.723Z,16.13
2019-04-20T07:09:46.206Z,16.31
2019-04-20T07:12:06.398Z,16.41
2019-04-20T07:14:31.529Z,16.45
2019-04-20T07:17:24.464Z,16.49
2019-04-20T07:19:40.223Z,16.58
2019-04-20T07:22:33.729Z,16.67
2019-04-20T07:25:02.410Z,16.72
2019-04-20T07:27:32.485Z,16.77
2019-04-20T07:30:04.095Z,16.88
2019-04-20T07:32:27.898Z,16.99
2019-04-20T07:35:03.289Z,17.06
2019-04-20T07:40:07.751Z,17.13
2019-04-20T07:42:35.090Z,17.25
2019-04-20T07:45:07.628Z,17.32
2019-04-20T07:47:41.584Z,17.42
2019-04-20T07:50:02.443Z,17.44
2019-04-20T07:52:12.230Z,17.47
2019-04-20T07:55:20.192Z,17.52
2019-04-20T07:57:30.756Z,17.66
2019-04-20T07:59:58.987Z,17.69
2019-04-20T08:02:47.332Z,17.75
2019-04-20T08:05:10.650Z,17.81
2019-04-20T08:07:39.300Z,17.82
2019-04-20T08:10:03.840Z,17.83
2019-04-20T08:12:56.884Z,17.94
2019-04-20T08:15:29.730Z,18.01
2019-04-20T08:20:21.757Z,18.10
2019-04-20T08:22:55.317Z,18.13
2019-04-20T08:25:14.170Z,18.20
2019-04-20T08:27:48.801Z,18.25
2019-04-20T08:30:41.380Z,18.35
2019-04-20T08:33:21.020Z,18.40
2019-04-20T08:36:00.922Z,18.41
2019-04-20T08:38:55.969Z,18.46
2019-04-20T08:40:53.575Z,18.44
2019-04-20T08:43:39.476Z,18.44
2019-04-20T08:45:52.435Z,18.47
2019-04-20T08:48:27.576Z,18.50
2019-04-20T08:50:53.250Z,18.61
2019-04-20T08:53:27.887Z,18.62
2019-04-20T08:55:47.717Z,18.67
2019-04-20T08:58:02.614Z,18.70
2019-04-20T09:00:35.713Z,18.76
2019-04-20T09:03:09.393Z,18.83
2019-04-20T09:05:43.955Z,18.87
2019-04-20T09:08:11.026Z,18.90
2019-04-20T09:10:49.575Z,18.98
2019-04-20T09:13:11.508Z,19.03
2019-04-20T09:15:32.068Z,19.06
2019-04-20T09:18:13.493Z,19.03
2019-04-20T09:20:45.923Z,19.14
2019-04-20T09:23:23.850Z,19.21
2019-04-20T09:28:27.599Z,19.27
2019-04-20T09:31:25.779Z,19.34
2019-04-20T09:33:55.677Z,19.42
2019-04-20T09:36:40.869Z,19.50
2019-04-20T09:39:14.995Z,19.60
2019-04-20T09:41:59.109Z,19.67
2019-04-20T09:44:08.942Z,19.72
2019-04-20T09:46:44.210Z,19.70
2019-04-20T09:49:18.756Z,19.77
2019-04-20T09:51:54.127Z,19.86
2019-04-20T09:54:27.094Z,19.97
2019-04-20T09:56:59.291Z,20.06
2019-04-20T09:59:25.228Z,20.11
2019-04-20T10:01:44.860Z,20.15
2019-04-20T10:04:07.596Z,20.17
2019-04-20T10:06:36.493Z,20.21
2019-04-20T10:09:07.724Z,20.29
2019-04-20T10:11:37.304Z,20.34
2019-04-20T10:14:06.164Z,20.39
2019-04-20T10:16:35.647Z,20.40
2019-04-20T10:19:04.898Z,20.47
2019-04-20T10:21:33.958Z,20.56
2019-04-20T10:24:02.837Z,20.67
2019-04-20T10:26:32.415Z,20.76
2019-04-20T10:29:01.524Z,20.80
2019-04-20T10:31:30.695Z,20.87
2019-04-20T10:33:59.787Z,20.89
2019-04-20T10:36:35.391Z,21.01
2019-04-20T10:39:06.510Z,21.03
2019-04-20T10:41:44.526Z,21.04
2019-04-20T10:44:04.944Z,21.01
2019-04-20T10:46:33.408Z,21.04
2019-04-20T10:49:04.302Z,21.11
2019-04-20T10:51:31.841Z,21.19
2019-04-20T10:54:00.420Z,21.28
2019-04-20T10:56:29.540Z,21.30
2019-04-20T10:58:57.996Z,21.37
2019-04-20T11:01:27.459Z,21.51
2019-04-20T11:03:56.562Z,21.59
2019-04-20T11:06:25.006Z,21.69
2019-04-20T11:08:53.250Z,21.72
2019-04-20T11:11:26.493Z,21.64
2019-04-20T11:13:53.141Z,21.62
2019-04-20T11:16:22.265Z,21.62
2019-04-20T11:18:51.412Z,21.78
2019-04-20T11:21:19.917Z,21.82
2019-04-20T11:23:48.401Z,21.85
2019-04-20T11:26:18.018Z,21.90
2019-04-20T11:28:46.405Z,21.98
2019-04-20T11:31:14.935Z,21.99
2019-04-20T11:33:43.724Z,22.08
2019-04-20T11:36:12.927Z,22.16
2019-04-20T11:38:42.749Z,22.22
2019-04-20T11:41:18.183Z,22.22
2019-04-20T11:43:41.958Z,22.17
2019-04-20T11:46:10.579Z,22.21
2019-04-20T11:48:39.438Z,22.25
2019-04-20T11:51:07.744Z,22.28
2019-04-20T11:53:36.431Z,22.29
2019-04-20T11:56:08.754Z,22.42
2019-04-20T11:58:36.048Z,22.50
2019-04-20T12:01:18.746Z,22.52
2019-04-20T12:03:56.464Z,22.61
2019-04-20T12:06:15.175Z,22.57
2019-04-20T12:08:44.319Z,22.72
2019-04-20T12:11:27.810Z,22.74
2019-04-20T12:13:44.872Z,22.85
2019-04-20T12:16:13.893Z,22.99
2019-04-20T12:18:42.451Z,23.01
2019-04-20T12:21:10.722Z,23.00
2019-04-20T12:23:40.233Z,23.09
2019-04-20T12:26:09.034Z,23.16
2019-04-20T12:28:37.947Z,23.31
2019-04-20T12:31:13.136Z,23.36
2019-04-20T12:33:36.723Z,23.39
2019-04-20T12:36:07.936Z,23.44
2019-04-20T12:38:37.035Z,23.33
2019-04-20T12:41:07.485Z,23.32
2019-04-20T12:43:36.030Z,23.43
2019-04-20T12:46:05.512Z,23.42
2019-04-20T12:48:34.109Z,23.36
2019-04-20T12:51:03.938Z,23.29
2019-04-20T12:53:32.726Z,23.30
2019-04-20T12:56:02.269Z,23.32
2019-04-20T12:58:30.975Z,23.40
2019-04-20T13:01:00.435Z,23.46
2019-04-20T13:03:29.779Z,23.41
2019-04-20T13:05:58.324Z,23.44
2019-04-20T13:08:33.637Z,23.42
2019-04-20T13:10:58.462Z,23.41
2019-04-20T13:13:28.721Z,23.55
2019-04-20T13:16:08.190Z,23.60
2019-04-20T13:18:41.300Z,23.66
2019-04-20T13:21:09.493Z,23.78
2019-04-20T13:23:37.734Z,23.60
2019-04-20T13:26:08.699Z,23.64
2019-04-20T13:28:37.063Z,23.61
2019-04-20T13:31:06.077Z,23.69
2019-04-20T13:33:34.528Z,23.88
2019-04-20T13:36:03.968Z,24.01
2019-04-20T13:38:32.394Z,24.11
2019-04-20T13:41:01.908Z,24.36
2019-04-20T13:43:30.265Z,24.59
2019-04-20T13:45:58.516Z,24.91
2019-04-20T13:48:26.801Z,25.23
2019-04-20T13:50:56.054Z,25.53
2019-04-20T13:53:25.319Z,25.82
2019-04-20T13:55:54.129Z,26.02
2019-04-20T13:58:40.320Z,25.90
2019-04-20T14:01:10.528Z,25.97
2019-04-20T14:03:38.884Z,26.03
2019-04-20T14:06:07.055Z,25.91
2019-04-20T14:08:35.797Z,25.87
2019-04-20T14:11:05.264Z,25.95
2019-04-20T14:13:39.252Z,26.00
2019-04-20T14:16:04.999Z,26.11
2019-04-20T14:18:33.493Z,26.34
2019-04-20T14:21:02.487Z,26.38
2019-04-20T14:23:30.969Z,26.55
2019-04-20T14:26:00.791Z,26.73
2019-04-20T14:28:29.186Z,26.88
2019-04-20T14:30:58.180Z,26.94
2019-04-20T14:33:26.663Z,26.92
2019-04-20T14:35:54.916Z,26.96
2019-04-20T14:38:24.293Z,27.13
2019-04-20T14:40:52.793Z,27.19
2019-04-20T14:43:21.180Z,27.38
2019-04-20T14:45:50.614Z,27.38
2019-04-20T14:48:18.787Z,27.49
2019-04-20T14:50:47.738Z,27.59
2019-04-20T14:53:15.952Z,27.72
2019-04-20T14:55:44.204Z,27.71
2019-04-20T14:58:23.648Z,27.75
2019-04-20T15:00:54.859Z,27.59
2019-04-20T15:03:28.337Z,27.48
2019-04-20T15:06:00.017Z,27.55
2019-04-20T15:08:28.642Z,27.62
2019-04-20T15:10:58.723Z,27.63
2019-04-20T15:13:28.814Z,27.66
2019-04-20T15:15:58.917Z,27.74
2019-04-20T15:18:31.574Z,27.85
2019-04-20T15:21:05.698Z,27.94
2019-04-20T15:23:35.288Z,27.94
2019-04-20T15:26:04.445Z,27.91
2019-04-20T15:28:32.792Z,27.87
2019-04-20T15:31:02.378Z,27.76
2019-04-20T15:33:30.871Z,27.73
2019-04-20T15:36:00.056Z,27.79
2019-04-20T15:38:29.152Z,27.81
2019-04-20T15:40:57.379Z,27.91
2019-04-20T15:43:27.866Z,27.91
2019-04-20T15:45:57.190Z,27.87
2019-04-20T15:48:26.035Z,28.08
2019-04-20T15:50:54.270Z,28.22
2019-04-20T15:53:23.908Z,28.32
2019-04-20T15:55:52.424Z,28.35
2019-04-20T15:58:20.735Z,28.36
2019-04-20T16:00:50.895Z,28.28
2019-04-20T16:03:23.359Z,28.37
2019-04-20T16:05:56.680Z,28.42
2019-04-20T16:08:36.683Z,28.48
2019-04-20T16:11:05.316Z,28.56
2019-04-20T16:13:39.514Z,28.55
2019-04-20T16:16:05.842Z,28.80
2019-04-20T16:18:34.923Z,28.98
2019-04-20T16:21:09.307Z,29.02
2019-04-20T16:23:34.880Z,29.08
2019-04-20T16:26:05.916Z,29.23
2019-04-20T16:28:35.360Z,29.17
2019-04-20T16:31:06.560Z,29.14
2019-04-20T16:33:34.536Z,29.16
2019-04-20T16:36:03.072Z,29.02
2019-04-20T16:38:31.477Z,28.92
2019-04-20T16:41:00.091Z,28.91
2019-04-20T16:43:33.930Z,28.87
2019-04-20T16:45:59.289Z,28.94
2019-04-20T16:48:28.267Z,28.91
2019-04-20T16:50:56.725Z,28.83
2019-04-20T16:53:24.975Z,28.65
2019-04-20T16:55:53.212Z,28.29
2019-04-20T16:58:21.816Z,27.73
2019-04-20T17:00:50.126Z,27.17
2019-04-20T17:03:19.566Z,26.68
2019-04-20T17:05:51.027Z,26.32
2019-04-20T17:08:18.736Z,26.00
2019-04-20T17:10:48.824Z,25.75
2019-04-20T17:13:28.507Z,25.50
2019-04-20T17:15:47.905Z,25.29
2019-04-20T17:18:16.243Z,25.08
2019-04-20T17:20:44.744Z,24.94
2019-04-20T17:23:13.120Z,24.76
2019-04-20T17:25:41.974Z,24.61
2019-04-20T17:28:17.945Z,24.48
2019-04-20T17:30:59.366Z,24.34
2019-04-20T17:33:54.638Z,24.22
2019-04-20T17:36:19.038Z,24.08
2019-04-20T17:38:48.504Z,23.96
2019-04-20T17:41:34.719Z,23.85
2019-04-20T17:44:01.433Z,23.73
2019-04-20T17:46:24.748Z,23.62
2019-04-20T17:48:59.114Z,23.50
2019-04-20T17:51:37.174Z,23.38
2019-04-20T17:53:52.725Z,23.28
2019-04-20T17:56:17.333Z,23.18
2019-04-20T17:58:46.163Z,23.07
2019-04-20T18:01:35.839Z,22.94
2019-04-20T18:04:31.101Z,22.85
2019-04-20T18:06:44.099Z,22.73
2019-04-20T18:09:07.124Z,22.62
2019-04-20T18:11:32.737Z,22.51
2019-04-20T18:14:05.597Z,22.39
2019-04-20T18:16:51.069Z,22.28
2019-04-20T18:19:19.228Z,22.18
2019-04-20T18:21:43.858Z,22.07
2019-04-20T18:24:24.015Z,21.96
2019-04-20T18:26:59.747Z,21.85
2019-04-20T18:29:32.283Z,21.74
2019-04-20T18:31:43.821Z,21.66
2019-04-20T18:34:16.440Z,21.56
2019-04-20T18:36:47.198Z,21.46
2019-04-20T18:39:16.553Z,21.37
2019-04-20T18:41:48.624Z,21.29
2019-04-20T18:44:14.843Z,21.21
2019-04-20T18:47:06.633Z,21.14
2019-04-20T18:49:31.320Z,21.04
2019-04-20T18:51:43.940Z,20.96
2019-04-20T18:54:19.447Z,20.88
2019-04-20T18:56:47.372Z,20.78
2019-04-20T18:59:13.368Z,20.73
2019-04-20T19:01:43.794Z,20.63
2019-04-20T19:04:12.377Z,20.56
2019-04-20T19:06:41.452Z,20.49
2019-04-20T19:09:17.770Z,20.44
2019-04-20T19:11:43.533Z,20.38
2019-04-20T19:14:33.610Z,20.30
2019-04-20T19:17:09.024Z,20.23
2019-04-20T19:19:39.403Z,20.14
2019-04-20T19:22:01.763Z,20.09
2019-04-20T19:24:34.565Z,20.01
2019-04-20T19:27:05.080Z,19.97
2019-04-20T19:29:38.137Z,19.93
2019-04-20T19:32:20.703Z,19.90
2019-04-20T19:34:45.318Z,19.87
2019-04-20T19:37:13.715Z,19.79
2019-04-20T19:39:47.388Z,19.77
2019-04-20T19:42:16.034Z,19.72
2019-04-20T19:44:45.142Z,19.68
2019-04-20T19:47:21.060Z,19.60
2019-04-20T19:49:41.919Z,19.57
2019-04-20T19:52:32.747Z,19.53
2019-04-20T19:54:50.757Z,19.48
2019-04-20T19:57:24.375Z,19.42
2019-04-20T19:59:39.886Z,19.35
2019-04-20T20:02:03.663Z,19.32
2019-04-20T20:04:42.586Z,19.29
2019-04-20T20:07:05.548Z,19.21
2019-04-20T20:09:37.880Z,19.17
2019-04-20T20:12:05.116Z,19.10
2019-04-20T20:14:36.792Z,19.06
2019-04-20T20:17:19.955Z,19.01
2019-04-20T20:19:54.567Z,18.99
2019-04-20T20:22:12.766Z,18.93
2019-04-20T20:24:33.348Z,18.86
2019-04-20T20:27:06.223Z,18.80
2019-04-20T20:29:40.958Z,18.74
2019-04-20T20:32:16.738Z,18.70
2019-04-20T20:34:40.512Z,18.63
2019-04-20T20:37:08.465Z,18.55
2019-04-20T20:39:36.255Z,18.52
2019-04-20T20:42:15.188Z,18.47
2019-04-20T20:44:41.209Z,18.42
2019-04-20T20:47:21.702Z,18.38
2019-04-20T20:49:56.854Z,18.35
2019-04-20T20:52:22.037Z,18.27
2019-04-20T20:54:44.897Z,18.20
2019-04-20T20:57:07.354Z,18.16
2019-04-20T20:59:43.015Z,18.10
2019-04-20T21:02:08.894Z,18.05
2019-04-20T21:04:33.465Z,18.02
2019-04-20T21:07:02.718Z,17.97
2019-04-20T21:09:31.369Z,17.95
2019-04-20T21:12:06.589Z,17.89
2019-04-20T21:14:34.699Z,17.88
2019-04-20T21:17:04.963Z,17.86
2019-04-20T21:19:48.064Z,17.86
2019-04-20T21:22:06.912Z,17.85
2019-04-20T21:24:31.167Z,17.81
2019-04-20T21:27:07.012Z,17.77
2019-04-20T21:29:35.875Z,17.73
2019-04-20T21:32:05.100Z,17.71
2019-04-20T21:34:31.160Z,17.69
2019-04-20T21:37:07.044Z,17.68
2019-04-20T21:39:38.919Z,17.59
2019-04-20T21:42:06.459Z,17.61
2019-04-20T21:44:35.107Z,17.59
2019-04-20T21:47:00.325Z,17.56
2019-04-20T21:49:43.630Z,17.52
2019-04-20T21:52:03.650Z,17.48
2019-04-20T21:54:29.844Z,17.43
2019-04-20T21:57:03.156Z,17.40
2019-04-20T21:59:35.136Z,17.37
2019-04-20T22:02:06.521Z,17.38
2019-04-20T22:04:29.126Z,17.34
2019-04-20T22:06:58.309Z,17.31
2019-04-20T22:09:34.432Z,17.25
2019-04-20T22:11:58.007Z,17.17
2019-04-20T22:14:28.388Z,17.12
2019-04-20T22:16:58.356Z,17.08
2019-04-20T22:19:36.678Z,17.05
2019-04-20T22:22:07.741Z,17.06
2019-04-20T22:24:42.471Z,17.10
2019-04-20T22:27:06.329Z,17.09
2019-04-20T22:29:26.485Z,17.00
2019-04-20T22:32:01.428Z,16.88
2019-04-20T22:34:27.937Z,16.77
2019-04-20T22:36:56.013Z,16.64
2019-04-20T22:39:32.186Z,16.52
2019-04-20T22:42:03.215Z,16.42
2019-04-20T22:44:28.753Z,16.27
2019-04-20T22:46:56.550Z,16.18
2019-04-20T22:49:39.961Z,16.06
2019-04-20T22:52:04.068Z,16.00
2019-04-20T22:54:39.738Z,15.95
2019-04-20T22:57:03.335Z,15.94
2019-04-20T22:59:37.216Z,15.96
2019-04-20T23:01:59.919Z,15.98
2019-04-20T23:04:25.032Z,15.98
2019-04-20T23:06:55.155Z,15.99
2019-04-20T23:09:24.626Z,15.96
2019-04-20T23:12:01.002Z,15.93
2019-04-20T23:14:22.944Z,15.90
2019-04-20T23:16:53.959Z,15.88
2019-04-20T23:19:31.991Z,15.82
2019-04-20T23:21:57.272Z,15.78
2019-04-20T23:24:21.955Z,15.74
2019-04-20T23:26:50.857Z,15.72
2019-04-20T23:29:21.400Z,15.67
2019-04-20T23:31:56.927Z,15.63
2019-04-20T23:34:23.145Z,15.56
2019-04-20T23:36:50.758Z,15.48
2019-04-20T23:39:22.580Z,15.42
2019-04-20T23:41:56.662Z,15.35
2019-04-20T23:44:23.638Z,15.30
2019-04-20T23:47:06.877Z,15.26
2019-04-20T23:49:50.789Z,15.22
2019-04-20T23:52:27.001Z,15.20
2019-04-20T23:54:34.055Z,15.18
2019-04-20T23:57:01.778Z,15.11
2019-04-20T23:59:37.382Z,15.09
